Weather at Abraham González International Airport

Public forecast

Using degrees Celsius for public forecast. Weather courtesy of forecast.io.

Current aviation weather report (METAR) for Abraham González International Airport

Retrieved 2021/01/23 19:40 UTC (0 seconds ago):

MMCS 231940Z 22008KT 10SM FEW200 17/02 A2994 RMK 8/002 ISOL CU N

Aviation forecast (TAF) for Abraham González International Airport

Retrieved 2021/01/23 18:39 UTC (1 hour ago):

TAF MMCS 231636Z 2318/2418 20010KT P6SM SCT200 FM240400 20005KT P6SM SCT200 FM241800 20010KT P6SM SKC